Time;durP1;ratioP1;P1;durP2;ratioP2;P2;SDS_P1;SDS_P2;PMS_P1;PMS_P2;Temp;Humidity;BMP_temperature;BMP_pressure;BME280_temperature;BME280_humidity;BME280_pressure;Samples;Min_cycle;Max_cycle;Signal;HPM_P1;HPM_P2
2022/08/03 00:00:58;;;;;;;7.28;2.10;;;;;;;;;;5073902;28;20201;-84
2022/08/03 00:03:25;;;;;;;1.90;1.80;;;;;;;;;;5081148;28;20237;-85
2022/08/03 00:05:52;;;;;;;2.50;2.20;;;;;;;;;;5090409;28;20197;-84
2022/08/03 00:08:19;;;;;;;1.80;1.70;;;;;;;;;;5090149;28;20266;-83
2022/08/03 00:10:46;;;;;;;2.65;1.85;;;;;;;;;;5090528;28;20201;-84
2022/08/03 00:13:13;;;;;;;2.47;2.22;;;;;;;;;;5089133;28;20700;-84
2022/08/03 00:15:41;;;;;;;4.40;2.00;;;;;;;;;;5061679;28;20202;-83
2022/08/03 00:18:09;;;;;;;1.95;1.85;;;;;;;;;;5055106;28;20234;-83
2022/08/03 00:20:36;;;;;;;2.65;1.77;;;;;;;;;;5072429;28;20274;-84
2022/08/03 00:23:05;;;;;;;3.70;2.28;;;;;;;;;;5068439;28;20240;-84
2022/08/03 00:25:32;;;;;;;2.03;1.92;;;;;;;;;;5058701;28;20351;-84
2022/08/03 00:27:59;;;;;;;5.30;1.98;;;;;;;;;;5034563;28;20242;-84
2022/08/03 00:30:27;;;;;;;2.05;1.80;;;;;;;;;;5065878;28;20198;-84
2022/08/03 00:32:54;;;;;;;4.57;1.80;;;;;;;;;;5074267;28;20260;-84
2022/08/03 00:35:22;;;;;;;2.83;1.90;;;;;;;;;;5068990;28;20205;-84
2022/08/03 00:37:49;;;;;;;1.80;1.70;;;;;;;;;;5064815;28;20287;-84
2022/08/03 00:40:16;;;;;;;2.75;2.08;;;;;;;;;;5074281;28;20229;-84
2022/08/03 00:42:47;;;;;;;2.35;2.00;;;;;;;;;;5073602;28;20233;-84
2022/08/03 00:45:14;;;;;;;2.92;1.98;;;;;;;;;;5074411;28;20217;-84
2022/08/03 00:47:41;;;;;;;2.77;1.80;;;;;;;;;;5071170;28;20233;-84
2022/08/03 00:50:09;;;;;;;3.30;1.85;;;;;;;;;;5054198;28;20521;-84
2022/08/03 00:52:37;;;;;;;2.00;1.88;;;;;;;;;;5055660;28;20233;-84
2022/08/03 00:55:04;;;;;;;2.50;2.03;;;;;;;;;;5057228;28;20228;-84
2022/08/03 00:57:32;;;;;;;2.40;1.98;;;;;;;;;;5053838;28;20242;-84
2022/08/03 00:59:59;;;;;;;2.17;1.90;;;;;;;;;;5068523;28;20290;-84
2022/08/03 01:02:27;;;;;;;2.80;2.10;;;;;;;;;;5059610;28;20233;-84
2022/08/03 01:04:54;;;;;;;2.17;1.98;;;;;;;;;;5061963;28;20714;-84
2022/08/03 01:07:23;;;;;;;2.17;2.00;;;;;;;;;;5039566;28;20228;-84
2022/08/03 01:09:56;;;;;;;2.85;1.88;;;;;;;;;;5073868;28;20201;-84
2022/08/03 01:12:25;;;;;;;2.23;2.00;;;;;;;;;;5073442;28;20696;-84
2022/08/03 01:14:55;;;;;;;1.98;1.88;;;;;;;;;;5064986;28;20217;-84
2022/08/03 01:17:24;;;;;;;2.40;2.20;;;;;;;;;;5053652;28;20230;-84
2022/08/03 01:19:55;;;;;;;2.13;1.97;;;;;;;;;;5074478;28;20225;-84
2022/08/03 01:22:31;;;;;;;1.95;1.85;;;;;;;;;;5073687;28;20237;-84
2022/08/03 01:25:03;;;;;;;2.67;2.33;;;;;;;;;;5065926;28;20194;-84
2022/08/03 01:27:33;;;;;;;2.08;1.85;;;;;;;;;;5053637;28;20249;-84
2022/08/03 01:30:04;;;;;;;2.67;1.83;;;;;;;;;;5065744;28;20186;-83
2022/08/03 01:32:42;;;;;;;6.43;2.20;;;;;;;;;;5073334;28;20225;-83
2022/08/03 01:35:11;;;;;;;2.10;1.90;;;;;;;;;;5066189;28;20202;-83
2022/08/03 01:37:41;;;;;;;2.87;1.90;;;;;;;;;;5053461;28;20234;-84
2022/08/03 01:40:10;;;;;;;2.33;2.20;;;;;;;;;;5072675;28;20228;-84
2022/08/03 01:42:37;;;;;;;3.93;2.10;;;;;;;;;;5053493;28;20309;-83
2022/08/03 01:45:08;;;;;;;1.83;1.70;;;;;;;;;;5071651;28;20205;-83
2022/08/03 01:47:35;;;;;;;5.23;1.90;;;;;;;;;;5073265;28;20229;-83
2022/08/03 01:50:03;;;;;;;2.70;2.10;;;;;;;;;;5074046;28;20594;-84
2022/08/03 01:52:31;;;;;;;2.77;2.10;;;;;;;;;;5063626;28;20236;-84
2022/08/03 01:54:59;;;;;;;2.57;2.40;;;;;;;;;;5054444;28;20205;-84
2022/08/03 01:57:26;;;;;;;2.13;1.97;;;;;;;;;;5053610;28;20676;-84
2022/08/03 01:59:54;;;;;;;4.57;2.17;;;;;;;;;;5065068;28;20232;-83
2022/08/03 02:02:23;;;;;;;2.20;2.00;;;;;;;;;;5057689;28;20284;-84
2022/08/03 02:04:51;;;;;;;2.27;2.07;;;;;;;;;;5053791;28;20666;-83
2022/08/03 02:07:18;;;;;;;2.20;2.00;;;;;;;;;;5070166;28;20233;-83
2022/08/03 02:09:47;;;;;;;2.53;2.33;;;;;;;;;;5059185;28;20201;-83
2022/08/03 02:12:14;;;;;;;2.60;2.40;;;;;;;;;;5072483;28;20240;-83
2022/08/03 02:14:43;;;;;;;2.63;2.43;;;;;;;;;;5074007;28;20248;-83
2022/08/03 02:17:11;;;;;;;3.17;2.53;;;;;;;;;;5073511;28;20241;-83
2022/08/03 02:19:40;;;;;;;7.13;2.77;;;;;;;;;;5069115;28;20217;-83
2022/08/03 02:22:10;;;;;;;3.43;2.67;;;;;;;;;;5060475;28;20598;-83
2022/08/03 02:24:37;;;;;;;5.13;2.27;;;;;;;;;;5062088;28;20203;-84
2022/08/03 02:27:06;;;;;;;6.13;2.57;;;;;;;;;;5073288;28;20233;-83
2022/08/03 02:29:34;;;;;;;2.50;2.20;;;;;;;;;;5065655;28;20201;-83
2022/08/03 02:32:03;;;;;;;3.13;2.70;;;;;;;;;;5063921;28;20283;-83
2022/08/03 02:34:32;;;;;;;2.57;2.37;;;;;;;;;;5061418;28;20270;-84
2022/08/03 02:37:01;;;;;;;2.40;2.10;;;;;;;;;;5067271;28;20255;-83
2022/08/03 02:39:30;;;;;;;2.50;2.30;;;;;;;;;;5072147;28;20771;-83
2022/08/03 02:42:02;;;;;;;4.07;2.40;;;;;;;;;;5072186;28;20216;-83
2022/08/03 02:44:30;;;;;;;2.37;2.20;;;;;;;;;;5073187;28;20228;-83
2022/08/03 02:46:59;;;;;;;3.77;2.20;;;;;;;;;;5072626;28;20213;-84
2022/08/03 02:49:27;;;;;;;3.53;2.17;;;;;;;;;;5073503;28;20288;-83
2022/08/03 02:51:55;;;;;;;2.53;2.33;;;;;;;;;;5055926;28;20237;-83
2022/08/03 02:54:25;;;;;;;2.60;2.40;;;;;;;;;;5059478;28;20297;-84
2022/08/03 02:56:52;;;;;;;2.40;2.20;;;;;;;;;;5051060;28;20213;-83
2022/08/03 02:59:21;;;;;;;2.63;2.43;;;;;;;;;;5053215;28;20206;-83
2022/08/03 03:01:48;;;;;;;3.67;2.43;;;;;;;;;;5040545;28;20202;-83
2022/08/03 03:04:15;;;;;;;3.50;2.60;;;;;;;;;;5049469;28;20202;-83
2022/08/03 03:06:43;;;;;;;3.00;2.67;;;;;;;;;;5052438;28;20202;-83
2022/08/03 03:09:10;;;;;;;3.63;2.40;;;;;;;;;;5069360;28;20675;-83
2022/08/03 03:11:41;;;;;;;2.67;2.47;;;;;;;;;;5058752;28;20577;-83
2022/08/03 03:14:09;;;;;;;2.40;2.20;;;;;;;;;;5063523;28;20225;-83
2022/08/03 03:16:36;;;;;;;2.30;2.10;;;;;;;;;;5058049;28;20202;-83
2022/08/03 03:19:04;;;;;;;3.17;2.67;;;;;;;;;;5053874;28;20651;-84
2022/08/03 03:21:31;;;;;;;3.43;2.50;;;;;;;;;;5071340;28;20224;-83
2022/08/03 03:23:58;;;;;;;3.60;2.87;;;;;;;;;;5061523;28;20226;-83
2022/08/03 03:26:25;;;;;;;3.00;2.80;;;;;;;;;;5055069;28;20229;-84
2022/08/03 03:28:54;;;;;;;8.43;3.30;;;;;;;;;;5054437;28;20713;-83
2022/08/03 03:31:22;;;;;;;7.90;2.70;;;;;;;;;;5055015;28;20207;-84
2022/08/03 03:33:49;;;;;;;4.03;2.93;;;;;;;;;;5055051;28;20265;-83
2022/08/03 03:36:17;;;;;;;7.03;3.10;;;;;;;;;;5050637;28;20335;-83
2022/08/03 03:38:44;;;;;;;7.30;3.20;;;;;;;;;;5053036;28;20260;-84
2022/08/03 03:41:11;;;;;;;9.73;2.70;;;;;;;;;;5055898;28;20292;-84
2022/08/03 03:43:38;;;;;;;7.67;3.10;;;;;;;;;;5049243;28;20309;-83
2022/08/03 03:46:07;;;;;;;2.93;2.67;;;;;;;;;;5052217;28;20229;-83
2022/08/03 03:48:34;;;;;;;3.23;2.90;;;;;;;;;;5054192;28;20225;-83
2022/08/03 03:51:01;;;;;;;3.30;3.00;;;;;;;;;;5054244;28;20202;-83
2022/08/03 03:53:28;;;;;;;3.00;2.67;;;;;;;;;;5054593;28;20237;-83
2022/08/03 03:55:55;;;;;;;4.57;2.70;;;;;;;;;;5055901;28;20236;-83
2022/08/03 03:58:22;;;;;;;2.93;2.73;;;;;;;;;;5054610;28;20716;-82
2022/08/03 04:00:49;;;;;;;3.07;2.80;;;;;;;;;;5055058;28;20230;-83
2022/08/03 04:03:18;;;;;;;6.50;3.00;;;;;;;;;;5055053;28;20234;-84
2022/08/03 04:11:18;;;;;;;5.20;3.13;;;;;;;;;;5089578;28;20239;-88
2022/08/03 04:13:49;;;;;;;2.73;2.53;;;;;;;;;;5094820;28;20236;-88
2022/08/03 04:16:18;;;;;;;3.50;2.80;;;;;;;;;;5095333;28;20632;-88
2022/08/03 04:18:48;;;;;;;3.43;2.90;;;;;;;;;;5094591;28;20240;-89
2022/08/03 04:21:16;;;;;;;3.13;2.83;;;;;;;;;;5095854;28;20232;-92
2022/08/03 04:23:49;;;;;;;2.97;2.77;;;;;;;;;;5095175;28;20235;-87
2022/08/03 04:26:19;;;;;;;3.23;3.03;;;;;;;;;;5094970;28;20215;-88
2022/08/03 04:28:48;;;;;;;3.27;2.97;;;;;;;;;;5094324;28;20267;-88
2022/08/03 04:31:16;;;;;;;3.57;2.90;;;;;;;;;;5094991;28;20268;-88
2022/08/03 04:33:45;;;;;;;2.87;2.67;;;;;;;;;;5093718;28;20243;-88
2022/08/03 04:36:15;;;;;;;6.63;2.80;;;;;;;;;;5094040;28;20641;-88
2022/08/03 04:38:47;;;;;;;3.10;2.90;;;;;;;;;;5094135;28;20243;-88
2022/08/03 04:41:14;;;;;;;4.83;2.90;;;;;;;;;;5093787;28;20221;-89
2022/08/03 04:43:42;;;;;;;2.70;2.50;;;;;;;;;;5094002;28;20244;-88
2022/08/03 04:46:09;;;;;;;3.10;2.90;;;;;;;;;;5094800;28;20200;-88
2022/08/03 04:48:37;;;;;;;3.13;2.83;;;;;;;;;;5092026;28;20240;-88
2022/08/03 04:51:04;;;;;;;7.10;3.27;;;;;;;;;;5073776;28;20197;-89
2022/08/03 04:53:32;;;;;;;4.97;3.03;;;;;;;;;;5073974;28;20240;-88
2022/08/03 04:56:05;;;;;;;3.43;3.13;;;;;;;;;;5076680;28;20205;-90
2022/08/03 04:58:32;;;;;;;3.63;3.33;;;;;;;;;;5075202;28;20252;-90
2022/08/03 05:01:00;;;;;;;3.80;3.50;;;;;;;;;;5075472;28;20225;-89
2022/08/03 05:03:27;;;;;;;7.03;3.60;;;;;;;;;;5073881;28;20237;-90
2022/08/03 05:05:55;;;;;;;5.20;3.43;;;;;;;;;;5074628;28;20224;-90
2022/08/03 05:08:22;;;;;;;5.57;3.50;;;;;;;;;;5073685;28;20249;-90
2022/08/03 05:10:50;;;;;;;4.70;3.60;;;;;;;;;;5076449;28;20208;-90
2022/08/03 05:13:17;;;;;;;8.93;3.53;;;;;;;;;;5073805;28;20240;-90
2022/08/03 05:15:44;;;;;;;3.60;3.27;;;;;;;;;;5075226;28;20188;-90
2022/08/03 05:18:11;;;;;;;5.97;3.57;;;;;;;;;;5075217;28;20237;-90
2022/08/03 05:20:39;;;;;;;6.70;3.43;;;;;;;;;;5074768;28;20244;-89
2022/08/03 05:23:06;;;;;;;8.23;3.80;;;;;;;;;;5076575;28;20240;-90
2022/08/03 05:25:33;;;;;;;13.63;3.73;;;;;;;;;;5087844;28;20206;-90
2022/08/03 05:28:01;;;;;;;9.10;3.60;;;;;;;;;;5075390;28;20243;-90
2022/08/03 05:30:28;;;;;;;4.03;3.63;;;;;;;;;;5075241;28;20209;-90
2022/08/03 05:32:55;;;;;;;4.10;3.80;;;;;;;;;;5074426;28;20244;-90
2022/08/03 05:35:24;;;;;;;4.00;3.70;;;;;;;;;;5073722;28;20560;-89
2022/08/03 05:37:51;;;;;;;3.97;3.67;;;;;;;;;;5073108;28;20268;-89
2022/08/03 05:40:18;;;;;;;3.30;3.00;;;;;;;;;;5073603;28;20233;-88
2022/08/03 05:42:45;;;;;;;5.03;3.30;;;;;;;;;;5072757;28;20232;-89
2022/08/03 05:45:15;;;;;;;3.57;3.27;;;;;;;;;;5073516;28;20200;-88
2022/08/03 05:47:43;;;;;;;4.07;3.67;;;;;;;;;;5073191;28;20260;-89
2022/08/03 05:50:10;;;;;;;3.60;3.30;;;;;;;;;;5074121;28;20209;-89
2022/08/03 05:52:38;;;;;;;3.27;3.00;;;;;;;;;;5073466;28;20240;-89
2022/08/03 05:55:05;;;;;;;5.43;3.27;;;;;;;;;;5073679;28;20233;-89
2022/08/03 05:57:32;;;;;;;6.73;3.30;;;;;;;;;;5072643;28;20233;-89
2022/08/03 06:00:00;;;;;;;5.23;3.70;;;;;;;;;;5073123;28;20202;-89
2022/08/03 06:02:28;;;;;;;5.83;3.10;;;;;;;;;;5072408;28;20599;-89
2022/08/03 06:04:55;;;;;;;4.93;3.67;;;;;;;;;;5073059;28;20217;-88
2022/08/03 06:07:22;;;;;;;5.37;3.87;;;;;;;;;;5072364;28;20608;-90
2022/08/03 06:09:49;;;;;;;6.40;3.70;;;;;;;;;;5073526;28;20676;-89
2022/08/03 06:12:16;;;;;;;4.07;3.30;;;;;;;;;;5072241;28;20232;-89
2022/08/03 06:14:43;;;;;;;2.87;2.67;;;;;;;;;;5073264;28;20212;-89
2022/08/03 06:17:10;;;;;;;3.08;2.25;;;;;;;;;;5074364;28;20233;-90
2022/08/03 06:19:40;;;;;;;2.77;2.53;;;;;;;;;;5073228;28;20216;-90
2022/08/03 06:22:07;;;;;;;3.17;2.88;;;;;;;;;;5072248;28;20237;-89
2022/08/03 06:24:34;;;;;;;3.22;2.67;;;;;;;;;;5072751;28;20228;-89
2022/08/03 06:27:01;;;;;;;3.20;2.40;;;;;;;;;;5072323;28;20220;-90
2022/08/03 06:29:28;;;;;;;2.67;2.47;;;;;;;;;;5059281;28;20606;-90
2022/08/03 06:31:56;;;;;;;3.63;2.50;;;;;;;;;;5051518;28;20580;-89
2022/08/03 06:34:24;;;;;;;5.85;2.65;;;;;;;;;;5052084;28;20216;-89
2022/08/03 06:36:53;;;;;;;3.13;2.45;;;;;;;;;;5051674;28;20210;-89
2022/08/03 06:39:21;;;;;;;3.03;2.30;;;;;;;;;;5052633;28;20222;-89
2022/08/03 06:41:48;;;;;;;4.85;2.50;;;;;;;;;;5071306;28;20209;-89
2022/08/03 06:44:15;;;;;;;2.95;2.40;;;;;;;;;;5071979;28;20313;-90
2022/08/03 06:46:42;;;;;;;4.38;2.50;;;;;;;;;;5072023;28;20213;-89
2022/08/03 06:49:09;;;;;;;3.38;2.38;;;;;;;;;;5071851;28;20232;-89
2022/08/03 06:51:36;;;;;;;2.63;2.42;;;;;;;;;;5072914;28;20198;-89
2022/08/03 06:54:05;;;;;;;2.63;2.42;;;;;;;;;;5074326;28;20240;-89
2022/08/03 06:56:32;;;;;;;3.78;2.30;;;;;;;;;;5071533;28;20201;-86
2022/08/03 06:58:59;;;;;;;3.20;2.30;;;;;;;;;;5073519;28;20237;-86
2022/08/03 07:01:26;;;;;;;3.60;2.28;;;;;;;;;;5075493;28;20240;-87
2022/08/03 07:03:55;;;;;;;2.50;2.25;;;;;;;;;;5075176;28;20237;-87
2022/08/03 07:06:22;;;;;;;5.85;2.50;;;;;;;;;;5076444;28;20309;-87
2022/08/03 07:08:49;;;;;;;3.25;2.28;;;;;;;;;;5075208;28;20306;-86
2022/08/03 07:11:18;;;;;;;11.10;3.92;;;;;;;;;;5075693;28;20197;-86
2022/08/03 07:13:45;;;;;;;4.70;2.42;;;;;;;;;;5075282;28;20627;-86
2022/08/03 07:16:12;;;;;;;2.20;2.05;;;;;;;;;;5075057;28;20201;-85
2022/08/03 07:18:40;;;;;;;2.50;2.17;;;;;;;;;;5074603;28;20268;-86
2022/08/03 07:21:09;;;;;;;2.00;1.90;;;;;;;;;;5074467;28;20214;-85
2022/08/03 07:23:36;;;;;;;3.17;2.22;;;;;;;;;;5054758;28;20625;-88
2022/08/03 07:26:03;;;;;;;2.65;1.90;;;;;;;;;;5056252;28;20607;-90
2022/08/03 07:28:32;;;;;;;2.33;1.65;;;;;;;;;;5054665;28;20245;-88
2022/08/03 07:30:59;;;;;;;3.60;1.63;;;;;;;;;;5054912;28;20217;-88
2022/08/03 07:33:26;;;;;;;3.13;2.05;;;;;;;;;;5074069;28;20766;-88
2022/08/03 07:35:53;;;;;;;2.05;1.90;;;;;;;;;;5076316;28;20649;-89
2022/08/03 07:38:20;;;;;;;1.80;1.70;;;;;;;;;;5075388;28;20270;-88
2022/08/03 07:40:48;;;;;;;1.60;1.50;;;;;;;;;;5074944;28;20202;-89
2022/08/03 07:43:16;;;;;;;1.80;1.70;;;;;;;;;;5074302;28;20225;-90
2022/08/03 07:45:44;;;;;;;4.47;1.45;;;;;;;;;;5074692;28;20575;-89
2022/08/03 07:48:11;;;;;;;2.70;1.58;;;;;;;;;;5073897;28;20606;-88
2022/08/03 07:50:38;;;;;;;1.33;1.33;;;;;;;;;;5074777;28;20249;-88
2022/08/03 07:53:05;;;;;;;2.15;1.60;;;;;;;;;;5074416;28;20236;-88
2022/08/03 07:55:33;;;;;;;1.75;1.65;;;;;;;;;;5073264;28;20209;-89
2022/08/03 07:58:01;;;;;;;1.70;1.60;;;;;;;;;;5072324;28;20267;-88
2022/08/03 08:00:29;;;;;;;2.50;1.95;;;;;;;;;;5073880;28;20205;-88
2022/08/03 08:02:57;;;;;;;1.50;1.40;;;;;;;;;;5073500;28;20241;-88
2022/08/03 08:05:24;;;;;;;1.80;1.70;;;;;;;;;;5074629;28;20186;-89
2022/08/03 08:07:51;;;;;;;1.85;1.73;;;;;;;;;;5066258;28;20245;-88
2022/08/03 08:10:22;;;;;;;3.28;1.60;;;;;;;;;;5052429;28;20234;-91
2022/08/03 08:12:49;;;;;;;3.05;1.52;;;;;;;;;;5053240;28;20317;-91
2022/08/03 08:15:16;;;;;;;1.73;1.40;;;;;;;;;;5053398;28;20232;-90
2022/08/03 08:17:44;;;;;;;2.67;1.38;;;;;;;;;;5052701;28;20234;-90
2022/08/03 08:20:16;;;;;;;3.55;1.60;;;;;;;;;;5053793;28;20209;-90
2022/08/03 08:22:43;;;;;;;1.58;1.48;;;;;;;;;;5053145;28;20244;-91
2022/08/03 08:25:10;;;;;;;1.77;1.40;;;;;;;;;;5053323;28;20206;-89
2022/08/03 08:27:42;;;;;;;1.60;1.50;;;;;;;;;;5052570;28;20243;-89
2022/08/03 08:30:09;;;;;;;1.80;1.65;;;;;;;;;;5052566;28;20253;-89
2022/08/03 08:32:36;;;;;;;1.25;1.13;;;;;;;;;;5051713;28;20240;-90
2022/08/03 08:35:03;;;;;;;2.40;1.40;;;;;;;;;;5053763;28;20198;-89
2022/08/03 08:37:32;;;;;;;1.33;1.23;;;;;;;;;;5052433;28;20238;-90
2022/08/03 08:39:59;;;;;;;1.42;1.33;;;;;;;;;;5052648;28;20685;-91
2022/08/03 08:42:26;;;;;;;1.40;1.30;;;;;;;;;;5051999;28;20682;-90
2022/08/03 08:44:53;;;;;;;1.40;1.30;;;;;;;;;;5052682;28;20208;-90
2022/08/03 08:47:24;;;;;;;1.63;1.42;;;;;;;;;;5052003;28;20245;-91
2022/08/03 08:49:52;;;;;;;1.70;1.60;;;;;;;;;;5052294;28;20213;-91
2022/08/03 08:52:22;;;;;;;3.17;1.40;;;;;;;;;;5051303;28;20226;-89
2022/08/03 08:54:50;;;;;;;1.52;1.42;;;;;;;;;;5052056;28;20264;-89
2022/08/03 08:57:18;;;;;;;1.70;1.60;;;;;;;;;;5051726;28;20230;-88
2022/08/03 08:59:45;;;;;;;1.33;1.23;;;;;;;;;;5052432;28;20870;-89
2022/08/03 09:02:12;;;;;;;1.90;1.10;;;;;;;;;;5051293;28;20698;-89
2022/08/03 09:04:39;;;;;;;1.42;1.33;;;;;;;;;;5051895;28;20213;-89
2022/08/03 09:07:07;;;;;;;1.25;1.15;;;;;;;;;;5015690;28;1025355;-89
2022/08/03 09:09:34;;;;;;;1.30;1.20;;;;;;;;;;5053602;28;20205;-89
2022/08/03 09:12:02;;;;;;;1.95;1.45;;;;;;;;;;5052803;28;20197;-89
2022/08/03 09:14:30;;;;;;;2.28;1.17;;;;;;;;;;5052644;28;20205;-90
2022/08/03 09:17:00;;;;;;;1.30;1.27;;;;;;;;;;5062534;28;20201;-89
2022/08/03 09:19:28;;;;;;;3.53;1.00;;;;;;;;;;5073229;28;20319;-89
2022/08/03 09:22:08;;;;;;;2.47;1.17;;;;;;;;;;5069997;28;20221;-89
2022/08/03 09:24:35;;;;;;;1.60;1.50;;;;;;;;;;5070067;28;20229;-89
2022/08/03 09:27:05;;;;;;;3.65;1.20;;;;;;;;;;5071248;28;20193;-90
2022/08/03 09:29:33;;;;;;;1.80;0.90;;;;;;;;;;5059681;28;20205;-89
2022/08/03 09:32:01;;;;;;;1.40;1.30;;;;;;;;;;5070594;28;20193;-90
2022/08/03 09:34:28;;;;;;;2.00;1.70;;;;;;;;;;5071900;28;20194;-89
2022/08/03 09:36:56;;;;;;;2.30;1.35;;;;;;;;;;5071910;28;20205;-90
2022/08/03 09:39:25;;;;;;;2.00;1.25;;;;;;;;;;5071913;28;20229;-89
2022/08/03 09:42:06;;;;;;;1.17;1.17;;;;;;;;;;5070341;28;20218;-89
2022/08/03 09:44:36;;;;;;;1.27;1.17;;;;;;;;;;5071614;28;20186;-90
2022/08/03 09:47:05;;;;;;;1.42;1.35;;;;;;;;;;5070705;28;20306;-89
2022/08/03 09:49:32;;;;;;;1.48;1.38;;;;;;;;;;5070813;28;20244;-89
2022/08/03 09:52:02;;;;;;;2.00;1.25;;;;;;;;;;5070490;28;20205;-88
2022/08/03 09:54:30;;;;;;;1.50;1.40;;;;;;;;;;5071134;28;20244;-89
2022/08/03 09:56:58;;;;;;;1.45;1.35;;;;;;;;;;5080956;28;20260;-91
2022/08/03 09:59:27;;;;;;;1.30;1.20;;;;;;;;;;5087371;28;20228;-89
2022/08/03 10:01:54;;;;;;;1.30;1.20;;;;;;;;;;5092144;28;20231;-90
2022/08/03 10:04:23;;;;;;;1.23;1.13;;;;;;;;;;5091450;28;20218;-90
2022/08/03 10:07:04;;;;;;;0.90;0.90;;;;;;;;;;5090737;28;20211;-88
2022/08/03 10:09:31;;;;;;;3.08;1.10;;;;;;;;;;5107956;22;20246;-86
2022/08/03 10:11:58;;;;;;;1.25;1.15;;;;;;;;;;5083880;28;20231;-85
2022/08/03 10:14:30;;;;;;;1.25;1.15;;;;;;;;;;5092583;28;20239;-86
2022/08/03 10:16:57;;;;;;;1.27;1.27;;;;;;;;;;5092298;28;20203;-86
2022/08/03 10:19:25;;;;;;;1.60;1.50;;;;;;;;;;5091215;28;20230;-86
2022/08/03 10:21:55;;;;;;;1.77;1.30;;;;;;;;;;5091692;28;20251;-86
2022/08/03 10:24:25;;;;;;;2.33;1.48;;;;;;;;;;5092264;28;20294;-85
2022/08/03 10:26:54;;;;;;;2.17;1.30;;;;;;;;;;5092217;28;20215;-86
2022/08/03 10:29:23;;;;;;;1.92;1.20;;;;;;;;;;5091964;28;20227;-86
2022/08/03 10:31:52;;;;;;;1.50;1.40;;;;;;;;;;5091136;28;20192;-86
2022/08/03 10:34:23;;;;;;;1.42;1.10;;;;;;;;;;5091494;28;20836;-86
2022/08/03 10:36:50;;;;;;;1.55;1.45;;;;;;;;;;5091834;28;20192;-86
2022/08/03 10:39:19;;;;;;;1.50;1.40;;;;;;;;;;5091127;28;20224;-85
2022/08/03 10:41:47;;;;;;;1.58;1.48;;;;;;;;;;5090878;28;20212;-87
2022/08/03 10:44:17;;;;;;;2.63;1.50;;;;;;;;;;5091307;28;20204;-86
2022/08/03 10:46:45;;;;;;;1.50;1.40;;;;;;;;;;5091804;28;20195;-86
2022/08/03 10:49:17;;;;;;;2.20;1.33;;;;;;;;;;5092085;28;20231;-86
2022/08/03 10:51:45;;;;;;;1.58;1.48;;;;;;;;;;5092802;28;20211;-88
2022/08/03 10:54:27;;;;;;;1.10;1.02;;;;;;;;;;5092983;28;20180;-89
2022/08/03 10:59:59;;;;;;;1.85;1.10;;;;;;;;;;5092204;28;20272;-90
2022/08/03 11:02:51;;;;;;;1.30;1.20;;;;;;;;;;5082338;28;20596;-88
2022/08/03 11:05:29;;;;;;;3.55;1.17;;;;;;;;;;5081707;28;20216;-87
2022/08/03 11:08:15;;;;;;;1.95;1.40;;;;;;;;;;5069096;28;20282;-87
2022/08/03 11:10:42;;;;;;;1.17;1.17;;;;;;;;;;5051405;28;20244;-89
2022/08/03 11:13:10;;;;;;;1.23;1.20;;;;;;;;;;5050892;28;20228;-90
2022/08/03 11:15:37;;;;;;;1.35;1.35;;;;;;;;;;5051448;28;20704;-89
2022/08/03 11:18:09;;;;;;;2.05;1.40;;;;;;;;;;5048157;28;20237;-89
2022/08/03 11:20:51;;;;;;;1.50;1.40;;;;;;;;;;5051235;28;20189;-90
2022/08/03 11:23:34;;;;;;;1.20;1.10;;;;;;;;;;5050680;28;20247;-90
2022/08/03 11:26:13;;;;;;;1.58;1.48;;;;;;;;;;5051561;28;20216;-90
2022/08/03 11:28:41;;;;;;;1.55;1.40;;;;;;;;;;5042495;28;20236;-88
2022/08/03 11:31:28;;;;;;;1.73;1.23;;;;;;;;;;5032898;28;20214;-90
2022/08/03 11:34:04;;;;;;;2.83;1.65;;;;;;;;;;5032422;28;20280;-91
2022/08/03 11:36:52;;;;;;;2.67;1.40;;;;;;;;;;5033432;28;20194;-92
2022/08/03 11:39:19;;;;;;;5.43;1.30;;;;;;;;;;5051838;28;20228;-88
2022/08/03 11:41:46;;;;;;;4.63;1.40;;;;;;;;;;5052346;28;20209;-91
2022/08/03 11:44:40;;;;;;;1.58;1.40;;;;;;;;;;5053253;28;20202;-90
2022/08/03 11:47:09;;;;;;;4.88;1.40;;;;;;;;;;5057094;28;20233;-91
2022/08/03 11:49:37;;;;;;;1.50;1.40;;;;;;;;;;5056152;28;20709;-88
2022/08/03 11:52:08;;;;;;;1.45;1.35;;;;;;;;;;5055539;28;20297;-91
2022/08/03 11:54:35;;;;;;;3.25;1.20;;;;;;;;;;5058652;28;20209;-91
2022/08/03 11:57:02;;;;;;;1.60;1.50;;;;;;;;;;5055846;28;20208;-92
2022/08/03 11:59:32;;;;;;;1.60;1.50;;;;;;;;;;5056139;28;20225;-89
2022/08/03 12:02:06;;;;;;;1.70;1.17;;;;;;;;;;5053809;28;20182;-89
2022/08/03 12:04:49;;;;;;;1.63;1.35;;;;;;;;;;5054760;28;20197;-86
2022/08/03 12:07:18;;;;;;;1.38;1.27;;;;;;;;;;5054363;28;20232;-87
2022/08/03 12:09:45;;;;;;;1.73;1.30;;;;;;;;;;5072063;28;20236;-87
2022/08/03 12:12:16;;;;;;;3.08;1.40;;;;;;;;;;5076868;28;21066;-88
2022/08/03 12:14:47;;;;;;;1.77;1.40;;;;;;;;;;5076389;28;20189;-89
2022/08/03 12:17:14;;;;;;;1.35;1.25;;;;;;;;;;5079213;28;20236;-88
2022/08/03 12:19:42;;;;;;;1.95;1.42;;;;;;;;;;5079364;28;20232;-89
2022/08/03 12:22:09;;;;;;;1.50;1.40;;;;;;;;;;5074631;28;20608;-88
2022/08/03 12:24:44;;;;;;;1.63;1.30;;;;;;;;;;5078335;28;20702;-88
2022/08/03 12:27:11;;;;;;;1.27;1.17;;;;;;;;;;5078029;28;20266;-88
2022/08/03 12:29:39;;;;;;;1.40;1.30;;;;;;;;;;5081351;28;20221;-87
2022/08/03 12:32:06;;;;;;;1.38;1.27;;;;;;;;;;5081397;28;20232;-87
2022/08/03 12:34:48;;;;;;;1.60;1.50;;;;;;;;;;5080561;28;20211;-88
2022/08/03 12:37:19;;;;;;;1.60;1.40;;;;;;;;;;5076444;28;20236;-88
2022/08/03 12:39:51;;;;;;;1.60;1.50;;;;;;;;;;5077235;28;20267;-88
2022/08/03 12:42:18;;;;;;;1.75;1.30;;;;;;;;;;5073477;28;20238;-88
2022/08/03 12:44:47;;;;;;;2.25;1.40;;;;;;;;;;5074420;28;20208;-89
2022/08/03 12:47:15;;;;;;;1.35;1.27;;;;;;;;;;5073508;28;20232;-88
2022/08/03 12:49:46;;;;;;;2.85;1.40;;;;;;;;;;5073747;28;20279;-89
2022/08/03 12:52:13;;;;;;;2.60;1.48;;;;;;;;;;5073198;28;20307;-89
2022/08/03 12:54:41;;;;;;;1.10;1.00;;;;;;;;;;5073834;28;20208;-89
2022/08/03 12:57:10;;;;;;;1.40;1.30;;;;;;;;;;5072608;28;20578;-89
2022/08/03 12:59:41;;;;;;;1.20;1.20;;;;;;;;;;5072887;28;20240;-88
2022/08/03 13:02:14;;;;;;;1.27;1.27;;;;;;;;;;5073074;28;20236;-90
2022/08/03 13:04:41;;;;;;;2.40;1.60;;;;;;;;;;5077565;28;20192;-89
2022/08/03 13:07:10;;;;;;;4.35;1.27;;;;;;;;;;5085387;28;20235;-88
2022/08/03 13:09:42;;;;;;;2.63;1.20;;;;;;;;;;5073615;28;20631;-89
2022/08/03 13:12:12;;;;;;;1.88;1.42;;;;;;;;;;5073161;28;20258;-90
2022/08/03 13:14:39;;;;;;;2.83;1.25;;;;;;;;;;5074049;28;20193;-88
2022/08/03 13:17:06;;;;;;;2.65;1.55;;;;;;;;;;5072529;28;20240;-88
2022/08/03 13:19:35;;;;;;;1.33;1.33;;;;;;;;;;5072991;28;20248;-89
2022/08/03 13:22:02;;;;;;;1.42;1.33;;;;;;;;;;5072683;28;20213;-88
2022/08/03 13:24:30;;;;;;;1.65;1.55;;;;;;;;;;5073215;28;20229;-89
2022/08/03 13:26:57;;;;;;;1.98;1.60;;;;;;;;;;5072881;28;20581;-88
2022/08/03 13:29:25;;;;;;;1.60;1.50;;;;;;;;;;5073250;28;20624;-89
2022/08/03 13:31:52;;;;;;;1.63;1.52;;;;;;;;;;5072766;28;20204;-89
2022/08/03 13:34:19;;;;;;;2.15;1.50;;;;;;;;;;5072957;28;20216;-90
2022/08/03 13:36:46;;;;;;;1.60;1.50;;;;;;;;;;5072654;28;20657;-90
2022/08/03 13:39:13;;;;;;;1.60;1.50;;;;;;;;;;5072878;28;20221;-90
2022/08/03 13:41:41;;;;;;;1.42;1.30;;;;;;;;;;5072752;28;20594;-89
2022/08/03 13:44:08;;;;;;;1.75;1.65;;;;;;;;;;5072547;28;20228;-89
2022/08/03 13:46:36;;;;;;;1.70;1.60;;;;;;;;;;5072835;28;20216;-89
2022/08/03 13:49:03;;;;;;;2.03;1.35;;;;;;;;;;5072985;28;20237;-90
2022/08/03 13:51:35;;;;;;;2.35;1.60;;;;;;;;;;5073408;28;20548;-91
2022/08/03 13:54:02;;;;;;;1.50;1.40;;;;;;;;;;5073150;28;20228;-90
2022/08/03 13:56:29;;;;;;;1.48;1.38;;;;;;;;;;5076996;28;20625;-88
2022/08/03 13:58:57;;;;;;;2.58;1.52;;;;;;;;;;5075706;28;20664;-89
2022/08/03 14:01:24;;;;;;;1.40;1.40;;;;;;;;;;5074942;28;20205;-90
2022/08/03 14:03:55;;;;;;;1.50;1.40;;;;;;;;;;5073509;28;20239;-89
2022/08/03 14:06:22;;;;;;;1.88;1.55;;;;;;;;;;5073365;28;20200;-90
2022/08/03 14:08:49;;;;;;;6.07;1.50;;;;;;;;;;5071832;28;20240;-89
2022/08/03 14:11:17;;;;;;;3.67;1.60;;;;;;;;;;5073224;28;20224;-88
2022/08/03 14:13:44;;;;;;;1.60;1.50;;;;;;;;;;5072741;28;20232;-88
2022/08/03 14:16:11;;;;;;;3.20;1.63;;;;;;;;;;5073588;28;20207;-88
2022/08/03 14:18:38;;;;;;;2.63;1.70;;;;;;;;;;5072648;28;20626;-90
2022/08/03 14:21:07;;;;;;;2.78;1.45;;;;;;;;;;5084016;28;20200;-90
2022/08/03 14:23:34;;;;;;;2.03;1.60;;;;;;;;;;5094928;28;20235;-92
2022/08/03 14:26:01;;;;;;;1.58;1.48;;;;;;;;;;5095786;28;20191;-91
2022/08/03 14:28:28;;;;;;;1.92;1.70;;;;;;;;;;5094770;28;20223;-91
2022/08/03 14:30:56;;;;;;;1.65;1.55;;;;;;;;;;5096701;28;20208;-90
2022/08/03 14:33:23;;;;;;;1.90;1.80;;;;;;;;;;5095509;28;20809;-90
2022/08/03 14:35:51;;;;;;;1.95;1.70;;;;;;;;;;5097844;28;20211;-91
2022/08/03 14:38:20;;;;;;;2.35;1.70;;;;;;;;;;5102131;28;20235;-93
2022/08/03 14:40:47;;;;;;;1.50;1.40;;;;;;;;;;5102921;28;20200;-89
2022/08/03 14:43:16;;;;;;;2.50;1.67;;;;;;;;;;5095222;28;20235;-90
2022/08/03 14:45:43;;;;;;;1.70;1.60;;;;;;;;;;5095696;28;20203;-89
2022/08/03 14:48:11;;;;;;;1.45;1.40;;;;;;;;;;5092530;28;20715;-88
2022/08/03 14:50:39;;;;;;;2.50;1.30;;;;;;;;;;5093344;28;20204;-89
2022/08/03 14:53:06;;;;;;;1.70;1.60;;;;;;;;;;5092744;28;20239;-90
2022/08/03 14:55:34;;;;;;;1.73;1.63;;;;;;;;;;5092892;28;20207;-89
2022/08/03 14:58:04;;;;;;;1.95;1.85;;;;;;;;;;5095090;28;20239;-91
2022/08/03 15:00:32;;;;;;;1.92;1.70;;;;;;;;;;5094284;28;20227;-89